Main page
METAR-TAF:

METAR-TAF

Airports :

Kos, Greece

Kos International Airport

latitude: 36-47N, longitude: 027-04E, elevation: 129 m

Current weather observation

The report was made 24 minutes ago, at 22:50 UTC
Wind 4 kt from the East/Southeast
Temperature 7°C
Humidity 70%
Pressure 1018 hPa
Visibility 10 km or more
Few clouds at a height of 1800 ft

METAR: LGKO 192250Z 12004KT 9999 FEW018 07/02 Q1018

Time: 01:14 (23:14 UTC)

Forecast

The report was made 6 hours and 14 minutes ago, at 17:00 UTC
Forecast valid from 19 at 18 UTC to 20 at 18 UTC
Wind 3 kt from variable directions
Visibility 10 km or more
Few clouds at a height of 1800 ft
Becoming
from 20 at 01 UTC to 20 at 03 UTC
Wind 15 kt from the West/Southwest
Scattered clouds at a height of 1800 ft
Broken clouds at a height of 2000 ft

TAF: LGKO 191700Z 1918/2018 VRB03KT 9999 FEW018 BECMG 2001/2003 24015KT SCT018 BKN020

Weather observations and forecasts of more than 4000 airports (METAR and TAF reports).

The available stations are represented by yellow and red dots on the map.

Hover mouse over dot to see the name of the station.

Then click to see weather observations and forecasts.

To change the map : click on the green buttons with a black cross to zoom in, on the green button with a dash to zoom out, or on the green arrows for adjacent maps.


METAR-TAF: